DABC/CZL METAR and TAF weather

Enter ICAO airport designator
Station Type Date Time Source
DABC METAR 2019/04/18 20:30 UTC NOAA

DABC 182030Z 00000KT CAVOK 17/09 Q1015


Station Type Date Time Source
DABC Decoded METAR 2019/04/18 20:30 UTC NOAA

Constantine, Algeria (DABC) 36-17N 006-37E 694M
Apr 18, 2019 - 04:30 PM EDT / 2019.04.18 2030 UTC
Wind: Calm:0
Visibility: greater than 7 mile(s):0
Temperature: 62 F (17 C)
Dew Point: 48 F (9 C)
Relative Humidity: 59%
Pressure (altimeter): 29.97 in. Hg (1015 hPa)
ob: DABC 182030Z 00000KT CAVOK 17/09 Q1015
cycle: 20

Station Type Date Time Source
DABC TAF 2019/04/18 18:40 UTC NOAA

TAF DABC 181700Z 1818/1918 28010KT 9999 FEW030 SCT200 PROB30
TEMPO 1818/1821 FEW023TCU
BECMG 1819/1821 12010KT

Example: see airport list